Dawson Community Airport
KGDV : rendu visible

Aérodrome :











RETROUVEZ-NOUS SUR...

 
LOGIN :

S'inscrire | Disclaimer

   EN    FR    IT 

 









Légende :    VFR   VFR Marginal   IFR   IFR Intensif   IFR Très Intensif
Visi : 
Plafond : 
>= 8 km
>= 3000ft
5 à 8 km
1000 à 3000 ft
1500m à 5 km
500 à 1000 ft
800 à 1500m
200 à 500 ft
< 800m
< 200 ft
Symboles :   Orages  Brouillard  Fortes neiges  Fortes précipitations  Vent > 20 kt






- Altitude de l'aérodrome : 2458 ft


KGDV - Dawson Community

DERNIER METAR :
  • 082156Z AUTO 26017G23KT 10SM FEW090 26/08 A2982 RMK AO2 PK WND 27027/2143 SLP084 T02610083

METARs EXPIRÉS :
  • 082056Z AUTO 26016G22KT 10SM BKN070 26/10 A2981 RMK AO2 WSHFT 1943 SLP081 T02610100 55008
  • 082008Z AUTO 27010KT 10SM BKN070 OVC085 24/12 A2981 RMK AO2 WSHFT 1943
  • 081956Z AUTO 29012G16KT 10SM BKN070 BKN090 25/12 A2980 RMK AO2 WSHFT 1938 SLP080 T02500117

TAF KGDV
Valide du 08 à 18h jusqu'au 09 à 18h UTC


081737Z 0818/0918 27015G24KT P6SM SKC
FM090300 27010KT P6SM SKC
FM091000 26010G18KT P6SM FEW120
FIR KZLC / Amérique du Nord



MET'MAP, la Météo Aéronautique d'un coup d'oeil ! - Copyright ORBIFLY Décembre 2007 - Disclaimer

ORBIFLY MET'MAP TEAM :

Programmation & Développement : Alexandra Zaïnal
Sur une idée originale de : Baudouin d'Aumeries
Assistance à la programmation : Marc-Olivier Méhu
Soutien technique & logistique : Manuel Goepfert

Contact : metmap@orbifly.com




SOURCES & CREDITS :

   NOAA       Earth
Advisory